• Join FlightAware (Why Join?)
  • Login
  • US Flag 
Rudolph Flight #1: Arrived! 
10:57PM EST


 

Airport Tracker/Info


-or-


 

Live Flight TrackerFlight Track Log ✈ THY419 ✈ 12-Jul-2013 ✈ LTBA / IST - UUWW / VKO

Flight Track Log - Related Links

Times and Time Zones

All times are in EDT time to prevent confusion due to time zone crossing. See the THY419 flight status page for this flight to view local times or setup timezone preferences in your user account.

Time Position Orientation Groundspeed Altitude Reporting Facility
EDT Latitude Longitude Course Direction KTS MPH feet Rate Location/Type
04:24PM 41.0470 28.8060 North 214 246 2,500  Level FlightAware
04:25PM 41.0770 28.8070 North 213 245 3,900 2,160 Climbing FlightAware
04:25PM 41.1030 28.8260 29° Northeast 239 275 4,700 1,860 Climbing FlightAware
04:26PM 41.1260 28.8470 35° Northeast 258 297 5,600 1,800 Climbing FlightAware
04:26PM 41.1560 28.8730 33° Northeast 256 295 6,400 2,160 Climbing FlightAware
04:27PM 41.1870 28.9000 33° Northeast 271 312 7,800 2,760 Climbing FlightAware
04:27PM 41.2170 28.9270 34° Northeast 274 315 9,000 2,460 Climbing FlightAware
04:27PM 41.2440 28.9510 34° Northeast 291 335 9,900 2,040 Climbing FlightAware
04:28PM 41.2950 28.9970 34° Northeast 316 364 11,400 2,040 Climbing FlightAware
04:29PM 41.3410 29.0390 34° Northeast 332 382 12,600 1,620 Climbing FlightAware
04:29PM 41.3950 29.0870 34° Northeast 336 387 13,400 1,740 Climbing FlightAware
04:30PM 41.4560 29.1380 32° Northeast 350 403 15,100 2,340 Climbing FlightAware
04:31PM 41.4950 29.1470 10° North 351 404 16,200 2,580 Climbing FlightAware
04:31PM 41.5620 29.1460 359° North 354 407 17,900 2,400 Climbing FlightAware
04:32PM 41.6060 29.1600 13° North 372 428 19,000 2,160 Climbing FlightAware
04:32PM 41.6750 29.2190 33° Northeast 385 443 20,700 2,100 Climbing FlightAware
04:33PM 41.7360 29.2720 33° Northeast 391 450 22,000 1,980 Climbing FlightAware
04:34PM 41.7910 29.3210 34° Northeast 405 466 23,200 1,980 Climbing FlightAware
04:34PM 41.8510 29.3740 33° Northeast 404 465 24,500 1,860 Climbing FlightAware
04:35PM 41.9250 29.4390 33° Northeast 411 473 25,900 1,800 Climbing FlightAware
04:36PM 41.9800 29.4880 34° Northeast 426 490 26,900 1,560 Climbing FlightAware
04:36PM 42.0480 29.5470 33° Northeast 426 490 27,900 1,380 Climbing FlightAware
04:37PM 42.1460 29.6350 34° Northeast 446 513 29,200 1,200 Climbing FlightAware
04:38PM 42.2450 29.7230 33° Northeast 465 535 30,200 1,080 Climbing FlightAware
04:39PM 42.3210 29.7900 33° Northeast 475 547 31,000 840 Climbing FlightAware
04:40PM 42.4270 29.8850 33° Northeast 493 567 31,600 660 Climbing FlightAware
04:41PM 42.5320 29.9800 34° Northeast 508 585 32,300 1,020 Climbing FlightAware
04:41PM 42.6120 30.0520 34° Northeast 507 583 33,300 1,080 Climbing FlightAware
04:43PM 42.7540 30.1810 34° Northeast 508 585 34,400 780 Climbing FlightAware
04:44PM 42.8620 30.2800 34° Northeast 512 589 35,100 720 Climbing FlightAware
04:44PM 42.9370 30.3480 34° Northeast 512 589 35,600 720 Climbing FlightAware
04:45PM 43.0360 30.4390 34° Northeast 511 588 36,200 660 Climbing FlightAware
04:46PM 42.9000 30.3140 214° Southwest 36,800 660 Climbing FlightAware
04:46PM 43.1770 30.5690 34° Northeast 512 589 37,000 120 Climbing FlightAware
04:47PM 43.2640 30.6470 33° Northeast 517 595 37,000  Level FlightAware
04:48PM 43.4190 30.7650 29° Northeast 522 601 37,000  Level FlightAware
04:49PM 43.5590 30.8710 29° Northeast 526 605 37,000  Level FlightAware
04:50PM 43.6830 30.9660 29° Northeast 527 606 37,000  Level FlightAware
04:51PM 43.7820 31.0410 29° Northeast 528 608 37,000  Level FlightAware
04:52PM 43.8690 31.1060 28° Northeast 529 609 37,000  Level FlightAware
04:52PM 43.9660 31.1800 29° Northeast 531 611 37,000  Level FlightAware
04:53PM 44.0620 31.2530 29° Northeast 533 613 37,000  Level FlightAware
04:54PM 44.1490 31.3190 29° Northeast 529 609 37,000  Level FlightAware
04:54PM 44.2240 31.3770 29° Northeast 526 605 37,000  Level FlightAware
04:55PM 44.3400 31.4670 29° Northeast 525 604 37,000  Level FlightAware
04:56PM 44.4230 31.5310 29° Northeast 522 601 37,000  Level FlightAware
04:57PM 44.4970 31.5890 29° Northeast 519 597 37,000  Level FlightAware
04:57PM 44.5910 31.6630 29° Northeast 516 594 37,000  Level FlightAware
04:58PM 44.6740 31.7280 29° Northeast 515 593 37,000  Level FlightAware
04:59PM 44.7570 31.7930 29° Northeast 514 592 37,000  Level FlightAware
04:59PM 44.8510 31.8670 29° Northeast 513 590 37,000  Level FlightAware
05:00PM 44.9450 31.9410 29° Northeast 511 588 37,000  Level FlightAware
05:01PM 45.0260 32.0060 30° Northeast 510 587 37,000  Level FlightAware
05:01PM 45.0990 32.0650 30° Northeast 508 585 37,000  Level FlightAware
05:02PM 45.1790 32.1290 29° Northeast 507 583 37,000  Level FlightAware
05:03PM 45.2610 32.1950 30° Northeast 498 573 37,000  Level FlightAware
05:03PM 45.3410 32.2600 30° Northeast 495 570 37,000  Level FlightAware
05:04PM 45.4180 32.3220 29° Northeast 492 566 37,000  Level FlightAware
05:05PM 45.4970 32.3870 30° Northeast 488 562 37,000  Level FlightAware
05:05PM 45.5760 32.4520 30° Northeast 484 557 37,000  Level FlightAware
05:06PM 45.6920 32.5480 30° Northeast 483 556 37,000  Level FlightAware
05:07PM 45.7770 32.6180 30° Northeast 480 552 37,000  Level FlightAware
05:08PM 45.8560 32.6830 30° Northeast 482 555 37,000  Level FlightAware
05:09PM 45.9330 32.7470 30° Northeast 481 554 37,000  Level FlightAware
05:09PM 46.0000 32.8040 31° Northeast 481 554 37,000  Level FlightAware
05:10PM 46.0700 32.8620 30° Northeast 481 554 37,000  Level FlightAware
05:11PM 46.1820 32.9560 30° Northeast 484 557 37,000  Level FlightAware
05:12PM 46.2980 33.0550 31° Northeast 483 556 37,000  Level FlightAware
05:12PM 46.3740 33.1210 31° Northeast 482 555 37,000  Level FlightAware
05:13PM 46.4610 33.1910 29° Northeast 481 554 37,000  Level FlightAware
05:14PM 46.5410 33.2520 28° Northeast 481 554 37,000  Level FlightAware
05:14PM 46.6200 33.3140 28° Northeast 482 555 37,000  Level FlightAware
05:15PM 46.7070 33.3830 29° Northeast 484 557 37,000  Level FlightAware
05:16PM 46.7830 33.4440 29° Northeast 485 558 37,000  Level FlightAware
05:17PM 46.8750 33.5170 28° Northeast 487 560 37,000  Level FlightAware
05:17PM 46.9540 33.5800 29° Northeast 487 560 37,000  Level FlightAware
05:18PM 47.0210 33.6340 29° Northeast 486 559 37,000  Level FlightAware
05:19PM 47.1090 33.7050 29° Northeast 486 559 37,000  Level FlightAware
05:19PM 47.1900 33.7710 29° Northeast 487 560 37,000  Level FlightAware
05:20PM 47.2780 33.8410 28° Northeast 488 562 37,000  Level FlightAware
05:21PM 47.3510 33.9010 29° Northeast 487 560 37,000  Level FlightAware
05:22PM 47.4650 33.9940 29° Northeast 488 562 37,000  Level FlightAware
05:22PM 47.5450 34.0600 29° Northeast 488 562 37,000  Level FlightAware
05:23PM 47.6130 34.1160 29° Northeast 488 562 37,000  Level FlightAware
05:24PM 47.7000 34.1880 29° Northeast 488 562 37,000  Level FlightAware
05:24PM 47.7790 34.2530 29° Northeast 487 560 37,000  Level FlightAware
05:25PM 47.8470 34.3090 29° Northeast 484 557 37,000  Level FlightAware
05:26PM 47.9370 34.3840 29° Northeast 482 555 37,000  Level FlightAware
05:26PM 48.0210 34.4560 30° Northeast 480 552 37,000  Level FlightAware
05:27PM 48.0890 34.5130 29° Northeast 477 549 37,000  Level FlightAware
05:28PM 48.1680 34.5780 29° Northeast 476 548 37,000  Level FlightAware
05:28PM 48.2600 34.6560 29° Northeast 474 545 37,000  Level FlightAware
05:29PM 48.3380 34.7220 29° Northeast 473 544 37,000  Level FlightAware
05:30PM 48.3960 34.7720 30° Northeast 472 543 37,000  Level FlightAware
05:30PM 48.4730 34.8380 30° Northeast 471 542 37,000  Level FlightAware
05:31PM 48.5640 34.9170 30° Northeast 471 542 37,000  Level FlightAware
05:32PM 48.6310 34.9740 29° Northeast 471 542 37,000  Level FlightAware
05:32PM 48.7010 35.0340 29° Northeast 471 542 37,000  Level FlightAware
05:33PM 48.8120 35.1310 30° Northeast 471 542 37,000  Level FlightAware
05:34PM 48.8880 35.1980 30° Northeast 472 543 37,000  Level FlightAware
05:35PM 48.9730 35.2720 30° Northeast 472 543 37,000  Level FlightAware
05:35PM 49.0360 35.3270 30° Northeast 473 544 37,000  Level FlightAware
05:36PM 49.1250 35.4050 30° Northeast 467 537 37,000  Level FlightAware
05:37PM 49.1900 35.4620 30° Northeast 462 532 37,000  Level FlightAware
05:37PM 49.2680 35.5320 30° Northeast 461 531 37,000  Level FlightAware
05:38PM 49.3430 35.5990 30° Northeast 460 529 37,000  Level FlightAware
05:39PM 49.4050 35.6550 30° Northeast 460 529 37,000  Level FlightAware
05:39PM 49.4780 35.7200 30° Northeast 456 525 37,000  Level FlightAware
05:40PM 49.5580 35.7920 30° Northeast 448 516 37,000  Level FlightAware
05:41PM 49.6200 35.8480 30° Northeast 447 514 37,000  Level FlightAware
05:41PM 49.7010 35.9210 30° Northeast 446 513 37,000  Level FlightAware
05:42PM 49.7840 35.9890 28° Northeast 444 511 37,000  Level FlightAware
05:43PM 49.8910 36.0630 24° Northeast 444 511 37,000  Level FlightAware
05:44PM 49.9710 36.1170 23° Northeast 446 513 37,000  Level FlightAware
05:45PM 50.0570 36.1760 24° Northeast 444 511 37,000  Level FlightAware
05:46PM 50.1660 36.2530 24° Northeast 444 511 37,000  Level FlightAware
05:46PM 50.2540 36.3150 24° Northeast 443 510 37,000  Level FlightAware
05:47PM 50.3360 36.3720 24° Northeast 441 507 37,000  Level FlightAware
05:48PM 50.4160 36.4290 24° Northeast 439 505 37,000  Level FlightAware
05:48PM 50.4790 36.4730 24° Northeast 437 503 37,000  Level FlightAware
05:49PM 50.5480 36.5220 24° Northeast 435 501 37,000  Level FlightAware
05:50PM 50.6370 36.5860 25° Northeast 434 499 37,000  Level FlightAware
05:50PM 50.7090 36.6290 21° North 431 496 37,000  Level FlightAware
05:51PM 50.7950 36.6800 21° North 435 501 37,000  Level FlightAware
05:52PM 50.8710 36.7240 20° North 435 501 37,000  Level FlightAware
05:53PM 50.9570 36.7750 20° North 434 499 37,000  Level FlightAware
05:53PM 51.0280 36.8180 21° North 433 498 37,000  Level FlightAware
05:54PM 51.1020 36.8620 20° North 433 498 37,000  Level FlightAware
05:55PM 51.1880 36.9130 20° North 433 498 37,000  Level FlightAware
05:55PM 51.2520 36.9510 20° North 433 498 37,000  Level FlightAware
05:56PM 51.3370 37.0030 21° North 433 498 37,000 -60 Level FlightAware
05:57PM 51.4660 37.0810 21° North 434 499 36,900 -60 Descending FlightAware
05:58PM 51.5300 37.1190 20° North 434 499 36,900 -120 Level FlightAware
05:59PM 51.6160 37.1710 21° North 434 499 36,800 -60 Descending FlightAware
05:59PM 51.7230 37.2360 21° North 434 499 36,800 -60 Level FlightAware
06:00PM 51.8310 37.3020 21° North 434 499 36,700 60 Descending FlightAware
06:01PM 51.9720 37.1310 323° Northwest 422 486 37,000 120 Climbing FlightAware
06:02PM 52.0520 37.1270 358° North 421 484 37,000  Level FlightAware
06:03PM 52.1290 37.1230 358° North 421 484 37,000  Level FlightAware
06:03PM 52.2060 37.1190 358° North 421 484 37,000  Level FlightAware
06:04PM 52.2930 37.1140 358° North 420 483 37,000  Level FlightAware
06:05PM 52.3810 37.1100 358° North 422 486 37,000  Level FlightAware
06:06PM 52.4570 37.1060 358° North 422 486 37,000  Level FlightAware
06:06PM 52.5390 37.1020 358° North 421 484 37,000  Level FlightAware
06:07PM 52.6080 37.0980 358° North 419 482 37,000 -660 Level FlightAware
06:08PM 52.6850 37.0940 358° North 409 471 36,200 -1,080 Descending FlightAware
06:08PM 52.7670 37.0890 358° North 425 489 35,500 -900 Descending FlightAware
06:09PM 52.8310 37.0860 358° North 432 497 35,100 -900 Descending FlightAware
06:10PM 52.9210 37.0820 358° North 434 499 34,400 -1,080 Descending FlightAware
06:10PM 52.9940 37.0780 358° North 424 488 33,600 -1,140 Descending FlightAware
06:11PM 53.1010 37.0750 359° North 418 481 32,700 -1,020 Descending FlightAware
06:12PM 53.1620 37.0720 358° North 418 481 32,200 -600 Descending FlightAware
06:12PM 53.2440 37.0690 359° North 415 478 32,000 -180 Descending FlightAware
06:13PM 53.3240 37.0650 358° North 414 476 32,000  Level FlightAware
06:14PM 53.4050 37.0620 359° North 412 474 32,000  Level FlightAware
06:14PM 53.4740 37.0590 359° North 411 473 32,000  Level FlightAware
06:15PM 53.4980 37.0580 359° North 411 473 32,000  Level FlightAware
06:16PM 53.5740 37.0570 360° North 413 475 32,000 -120 Level FlightAware
06:16PM 53.6890 37.0840 North 416 479 31,900 -840 Descending FlightAware
06:17PM 53.7700 37.1050 North 405 466 30,800 -1,320 Descending FlightAware
06:18PM 53.8450 37.1240 North 401 461 30,100 -1,080 Descending FlightAware
06:18PM 53.9250 37.1450 North 405 466 29,300 -1,500 Descending FlightAware
06:19PM 54.0000 37.1640 North 397 457 28,000 -1,980 Descending FlightAware
06:20PM 54.0650 37.1810 North 390 449 26,800 -1,980 Descending FlightAware
06:20PM 54.1420 37.2010 North 383 441 25,400 -1,980 Descending FlightAware
06:21PM 54.2110 37.2190 North 377 434 24,100 -1,860 Descending FlightAware
06:22PM 54.2860 37.2380 North 370 426 22,800 -1,860 Descending FlightAware
06:23PM 54.3600 37.2580 North 363 418 21,400 -1,860 Descending FlightAware
06:23PM 54.4260 37.2750 North 357 411 20,200 -1,800 Descending FlightAware
06:24PM 54.4900 37.2920 North 349 402 19,000 -2,100 Descending FlightAware
06:25PM 54.5560 37.2990 North 352 405 17,400 -2,100 Descending FlightAware
06:25PM 54.6120 37.3050 North 343 395 16,400 -1,740 Descending FlightAware
06:26PM 54.6800 37.3110 North 334 384 15,100 -1,320 Descending FlightAware
06:27PM 54.7420 37.3180 North 306 352 14,600 -660 Descending FlightAware
06:27PM 54.7900 37.3220 North 280 322 14,300 -840 Descending FlightAware
06:28PM 54.8450 37.3270 North 266 306 13,500 -1,260 Descending FlightAware
06:29PM 54.8930 37.3320 North 257 296 12,600 -1,500 Descending FlightAware
06:29PM 54.9450 37.3380 North 257 296 11,400 -1,500 Descending FlightAware
06:30PM 54.9930 37.3430 North 255 293 10,500 -1,380 Descending FlightAware
06:30PM 55.0240 37.3460 North 253 291 9,900 -1,260 Descending FlightAware
06:31PM 55.0420 37.3480 North 250 288 9,600 -1,080 Descending FlightAware
06:31PM 55.0700 37.3500 North 247 284 9,200 -1,140 Descending FlightAware
06:31PM 55.0980 37.3530 North 245 282 8,700 -1,200 Descending FlightAware
06:32PM 55.1300 37.3560 North 242 278 8,200 -1,200 Descending FlightAware
06:32PM 55.1560 37.3590 North 240 276 7,700 -1,200 Descending FlightAware
06:33PM 55.1930 37.3620 North 240 276 7,100 -1,200 Descending FlightAware
06:33PM 55.2220 37.3520 349° North 236 272 6,500 -1,260 Descending FlightAware
06:34PM 55.2380 37.3320 325° Northwest 236 272 6,100 -1,140 Descending FlightAware
06:34PM 55.2650 37.3000 326° Northwest 233 268 5,600 -1,140 Descending FlightAware
06:35PM 55.2930 37.2660 325° Northwest 231 266 5,000 -1,140 Descending FlightAware
06:35PM 55.3180 37.2370 327° Northwest 231 266 4,500 -1,200 Descending FlightAware
06:36PM 55.3360 37.2140 324° Northwest 232 267 4,000 -1,200 Descending FlightAware
06:36PM 55.3680 37.1770 327° Northwest 232 267 3,400 -1,020 Descending FlightAware
06:36PM 55.3860 37.1580 329° Northwest 229 264 3,100 -840 Descending FlightAware
06:37PM 55.4170 37.1370 339° North 222 255 2,700 -480 Descending FlightAware
06:37PM 55.4430 37.1480 13° North 203 234 2,700  Level FlightAware
06:38PM 55.4780 37.1740 23° Northeast 179 206 2,700  Level FlightAware
06:38PM 55.4850 37.1800 26° Northeast 177 204 2,700 -600 Level FlightAware
06:39PM 55.5080 37.1970 23° Northeast 163 188 2,300 -840 Descending FlightAware
06:39PM 55.5180 37.2050 24° Northeast 154 177 2,100 -1,080 Descending FlightAware
06:39PM 55.5330 37.2170 24° Northeast 150 173 1,600 -780 Descending FlightAware
06:40PM 55.5530 37.2310 22° Northeast 148 170 1,400 -660 Descending FlightAware
06:40PM 55.5680 37.2440 26° Northeast 147 169 1,000 -900 Descending FlightAware
06:41PM 55.5780 37.2510 22° Northeast 146 168 800 -300 Descending FlightAware
06:41PM 55.5940 37.2630 23° Northeast 146 168 800  Level FlightAware
06:42PM 55.6050 37.2720 25° Northeast 9 10 -1,200 Descending FlightAware
06:44PM 55.5961 37.2676 196° South  Level Estimated